Quincy, Illinois
Current Conditions -  °F | °C
As of 9:54 PM on Monday 20 Oct 2014 (Local Time) from KUIN Reporting Station
Clear Clear  
Wind Chill: 54°   Ceiling: Unl
Heat Index: 54°   Visibility: 10mi
Dew Point: 43°   Wind: 5mph
Humidity: 66%   Direction: 260°W
Pressure: 30.02"   Gusts: NA
Location:  39.94°N, 91.39°W
Report Text: KUIN 210254Z AUTO 26004KT 10SM CLR 12/06 A3002 RMK AO2 SLP164 T01220061 51008
Loading
Personal Weather Stations






























Interactive Weather Map
Tropical Storm Tracking
New forecast layout! Learn more

10-Day Weather Forecast

Advertisements
Track Severe Weather on mobile